sensor_id;sensor_type;location;lat;lon;timestamp;P1;durP1;ratioP1;P2;durP2;ratioP2
11731;SDS011;5922;53.734;10.258;2023-03-14T00:00:29;6.10;;;2.33;;
11731;SDS011;5922;53.734;10.258;2023-03-14T00:02:56;8.07;;;2.73;;
11731;SDS011;5922;53.734;10.258;2023-03-14T00:05:23;8.03;;;2.80;;
11731;SDS011;5922;53.734;10.258;2023-03-14T00:07:52;10.87;;;2.67;;
11731;SDS011;5922;53.734;10.258;2023-03-14T00:10:19;5.77;;;2.63;;
11731;SDS011;5922;53.734;10.258;2023-03-14T00:12:47;10.73;;;3.03;;
11731;SDS011;5922;53.734;10.258;2023-03-14T00:15:14;8.60;;;2.87;;
11731;SDS011;5922;53.734;10.258;2023-03-14T00:17:42;10.80;;;3.00;;
11731;SDS011;5922;53.734;10.258;2023-03-14T00:20:10;9.10;;;2.63;;
11731;SDS011;5922;53.734;10.258;2023-03-14T00:22:38;7.60;;;2.43;;
11731;SDS011;5922;53.734;10.258;2023-03-14T00:25:07;7.27;;;2.70;;
11731;SDS011;5922;53.734;10.258;2023-03-14T00:27:35;7.67;;;3.03;;
11731;SDS011;5922;53.734;10.258;2023-03-14T00:30:03;7.90;;;2.50;;
11731;SDS011;5922;53.734;10.258;2023-03-14T00:32:30;7.33;;;2.60;;
11731;SDS011;5922;53.734;10.258;2023-03-14T00:34:57;6.43;;;2.57;;
11731;SDS011;5922;53.734;10.258;2023-03-14T00:37:25;8.40;;;2.83;;
11731;SDS011;5922;53.734;10.258;2023-03-14T00:39:53;7.27;;;2.60;;
11731;SDS011;5922;53.734;10.258;2023-03-14T00:42:21;7.70;;;3.03;;
11731;SDS011;5922;53.734;10.258;2023-03-14T00:44:48;5.80;;;2.87;;
11731;SDS011;5922;53.734;10.258;2023-03-14T00:47:16;6.77;;;2.60;;
11731;SDS011;5922;53.734;10.258;2023-03-14T00:49:43;7.73;;;2.57;;
11731;SDS011;5922;53.734;10.258;2023-03-14T00:52:10;7.23;;;2.60;;
11731;SDS011;5922;53.734;10.258;2023-03-14T00:54:37;9.23;;;3.00;;
11731;SDS011;5922;53.734;10.258;2023-03-14T00:57:05;10.83;;;3.20;;
11731;SDS011;5922;53.734;10.258;2023-03-14T00:59:33;9.83;;;2.67;;
11731;SDS011;5922;53.734;10.258;2023-03-14T01:02:00;7.70;;;2.77;;
11731;SDS011;5922;53.734;10.258;2023-03-14T01:04:28;10.97;;;3.10;;
11731;SDS011;5922;53.734;10.258;2023-03-14T01:06:56;7.87;;;2.60;;
11731;SDS011;5922;53.734;10.258;2023-03-14T01:09:23;12.43;;;3.00;;
11731;SDS011;5922;53.734;10.258;2023-03-14T01:11:52;7.10;;;2.97;;
11731;SDS011;5922;53.734;10.258;2023-03-14T01:14:22;11.50;;;3.23;;
11731;SDS011;5922;53.734;10.258;2023-03-14T01:16:50;7.30;;;2.80;;
11731;SDS011;5922;53.734;10.258;2023-03-14T01:19:18;10.13;;;3.07;;
11731;SDS011;5922;53.734;10.258;2023-03-14T01:21:45;9.70;;;3.13;;
11731;SDS011;5922;53.734;10.258;2023-03-14T01:24:13;9.03;;;2.57;;
11731;SDS011;5922;53.734;10.258;2023-03-14T01:26:39;7.20;;;2.70;;
11731;SDS011;5922;53.734;10.258;2023-03-14T01:29:06;9.97;;;2.50;;
11731;SDS011;5922;53.734;10.258;2023-03-14T01:31:34;7.97;;;2.80;;
11731;SDS011;5922;53.734;10.258;2023-03-14T01:34:02;10.40;;;3.00;;
11731;SDS011;5922;53.734;10.258;2023-03-14T01:36:29;8.40;;;2.77;;
11731;SDS011;5922;53.734;10.258;2023-03-14T01:38:57;9.73;;;2.70;;
11731;SDS011;5922;53.734;10.258;2023-03-14T01:41:25;8.77;;;3.03;;
11731;SDS011;5922;53.734;10.258;2023-03-14T01:43:52;6.80;;;3.00;;
11731;SDS011;5922;53.734;10.258;2023-03-14T01:49:05;8.87;;;2.87;;
11731;SDS011;5922;53.734;10.258;2023-03-14T01:51:35;9.43;;;2.80;;
11731;SDS011;5922;53.734;10.258;2023-03-14T01:54:05;10.90;;;3.00;;
11731;SDS011;5922;53.734;10.258;2023-03-14T01:56:33;9.07;;;2.80;;
11731;SDS011;5922;53.734;10.258;2023-03-14T01:59:01;10.10;;;2.87;;
11731;SDS011;5922;53.734;10.258;2023-03-14T02:01:31;7.97;;;2.63;;
11731;SDS011;5922;53.734;10.258;2023-03-14T02:03:59;7.03;;;2.90;;
11731;SDS011;5922;53.734;10.258;2023-03-14T02:06:32;9.40;;;3.17;;
11731;SDS011;5922;53.734;10.258;2023-03-14T02:09:00;7.63;;;2.60;;
11731;SDS011;5922;53.734;10.258;2023-03-14T02:11:29;7.20;;;2.70;;
11731;SDS011;5922;53.734;10.258;2023-03-14T02:13:56;6.73;;;2.67;;
11731;SDS011;5922;53.734;10.258;2023-03-14T02:16:24;6.83;;;2.90;;
11731;SDS011;5922;53.734;10.258;2023-03-14T02:18:51;6.00;;;2.60;;
11731;SDS011;5922;53.734;10.258;2023-03-14T02:21:20;4.67;;;2.43;;
11731;SDS011;5922;53.734;10.258;2023-03-14T02:23:53;7.50;;;2.87;;
11731;SDS011;5922;53.734;10.258;2023-03-14T02:26:26;7.30;;;2.90;;
11731;SDS011;5922;53.734;10.258;2023-03-14T02:28:57;6.83;;;2.60;;
11731;SDS011;5922;53.734;10.258;2023-03-14T02:31:24;7.43;;;3.00;;
11731;SDS011;5922;53.734;10.258;2023-03-14T02:33:52;7.13;;;3.13;;
11731;SDS011;5922;53.734;10.258;2023-03-14T02:36:19;5.53;;;2.77;;
11731;SDS011;5922;53.734;10.258;2023-03-14T02:38:48;7.13;;;2.50;;
11731;SDS011;5922;53.734;10.258;2023-03-14T02:41:17;6.37;;;2.80;;
11731;SDS011;5922;53.734;10.258;2023-03-14T02:43:44;6.83;;;2.90;;
11731;SDS011;5922;53.734;10.258;2023-03-14T02:46:13;5.57;;;2.50;;
11731;SDS011;5922;53.734;10.258;2023-03-14T02:48:41;6.73;;;2.77;;
11731;SDS011;5922;53.734;10.258;2023-03-14T02:51:09;5.40;;;2.43;;
11731;SDS011;5922;53.734;10.258;2023-03-14T02:53:37;8.30;;;2.60;;
11731;SDS011;5922;53.734;10.258;2023-03-14T02:56:06;5.40;;;2.83;;
11731;SDS011;5922;53.734;10.258;2023-03-14T02:58:34;7.93;;;2.83;;
11731;SDS011;5922;53.734;10.258;2023-03-14T03:01:01;5.77;;;2.43;;
11731;SDS011;5922;53.734;10.258;2023-03-14T03:03:30;7.03;;;2.70;;
11731;SDS011;5922;53.734;10.258;2023-03-14T03:05:57;5.90;;;2.43;;
11731;SDS011;5922;53.734;10.258;2023-03-14T03:08:25;6.30;;;2.80;;
11731;SDS011;5922;53.734;10.258;2023-03-14T03:10:52;6.57;;;2.80;;
11731;SDS011;5922;53.734;10.258;2023-03-14T03:13:19;4.23;;;2.70;;
11731;SDS011;5922;53.734;10.258;2023-03-14T03:15:47;12.77;;;3.27;;
11731;SDS011;5922;53.734;10.258;2023-03-14T03:18:14;10.67;;;3.17;;
11731;SDS011;5922;53.734;10.258;2023-03-14T03:20:43;5.13;;;2.80;;
11731;SDS011;5922;53.734;10.258;2023-03-14T03:23:10;5.50;;;2.83;;
11731;SDS011;5922;53.734;10.258;2023-03-14T03:25:38;8.63;;;2.63;;
11731;SDS011;5922;53.734;10.258;2023-03-14T03:28:05;9.33;;;2.87;;
11731;SDS011;5922;53.734;10.258;2023-03-14T03:30:33;6.93;;;2.70;;
11731;SDS011;5922;53.734;10.258;2023-03-14T03:33:00;7.30;;;2.73;;
11731;SDS011;5922;53.734;10.258;2023-03-14T03:35:27;5.37;;;2.63;;
11731;SDS011;5922;53.734;10.258;2023-03-14T03:37:56;5.60;;;2.93;;
11731;SDS011;5922;53.734;10.258;2023-03-14T03:40:23;8.53;;;3.00;;
11731;SDS011;5922;53.734;10.258;2023-03-14T03:42:51;4.73;;;2.83;;
11731;SDS011;5922;53.734;10.258;2023-03-14T03:45:18;7.40;;;3.47;;
11731;SDS011;5922;53.734;10.258;2023-03-14T03:47:45;5.70;;;2.93;;
11731;SDS011;5922;53.734;10.258;2023-03-14T03:50:12;5.73;;;3.37;;
11731;SDS011;5922;53.734;10.258;2023-03-14T03:52:40;5.30;;;2.80;;
11731;SDS011;5922;53.734;10.258;2023-03-14T03:55:08;6.20;;;2.97;;
11731;SDS011;5922;53.734;10.258;2023-03-14T03:57:36;5.77;;;2.50;;
11731;SDS011;5922;53.734;10.258;2023-03-14T04:00:04;5.30;;;2.50;;
11731;SDS011;5922;53.734;10.258;2023-03-14T04:02:32;6.40;;;2.70;;
11731;SDS011;5922;53.734;10.258;2023-03-14T04:04:59;6.07;;;3.20;;
11731;SDS011;5922;53.734;10.258;2023-03-14T04:07:26;3.93;;;2.80;;
11731;SDS011;5922;53.734;10.258;2023-03-14T04:09:53;5.77;;;2.80;;
11731;SDS011;5922;53.734;10.258;2023-03-14T04:12:22;6.13;;;2.60;;
11731;SDS011;5922;53.734;10.258;2023-03-14T04:14:49;6.83;;;2.97;;
11731;SDS011;5922;53.734;10.258;2023-03-14T04:17:17;5.17;;;2.67;;
11731;SDS011;5922;53.734;10.258;2023-03-14T04:19:44;8.37;;;3.70;;
11731;SDS011;5922;53.734;10.258;2023-03-14T04:22:11;5.50;;;2.60;;
11731;SDS011;5922;53.734;10.258;2023-03-14T04:24:38;6.57;;;2.67;;
11731;SDS011;5922;53.734;10.258;2023-03-14T04:27:06;5.23;;;3.20;;
11731;SDS011;5922;53.734;10.258;2023-03-14T04:29:34;14.57;;;2.93;;
11731;SDS011;5922;53.734;10.258;2023-03-14T04:32:01;8.07;;;3.43;;
11731;SDS011;5922;53.734;10.258;2023-03-14T04:34:29;6.87;;;2.87;;
11731;SDS011;5922;53.734;10.258;2023-03-14T04:36:56;7.43;;;2.70;;
11731;SDS011;5922;53.734;10.258;2023-03-14T04:39:23;4.40;;;2.77;;
11731;SDS011;5922;53.734;10.258;2023-03-14T04:41:50;6.17;;;2.93;;
11731;SDS011;5922;53.734;10.258;2023-03-14T04:44:18;5.60;;;2.80;;
11731;SDS011;5922;53.734;10.258;2023-03-14T04:46:47;5.87;;;2.87;;
11731;SDS011;5922;53.734;10.258;2023-03-14T04:49:14;7.03;;;2.80;;
11731;SDS011;5922;53.734;10.258;2023-03-14T04:51:41;7.30;;;2.90;;
11731;SDS011;5922;53.734;10.258;2023-03-14T04:54:08;6.33;;;2.87;;
11731;SDS011;5922;53.734;10.258;2023-03-14T04:56:35;8.90;;;3.00;;
11731;SDS011;5922;53.734;10.258;2023-03-14T04:59:03;11.23;;;3.10;;
11731;SDS011;5922;53.734;10.258;2023-03-14T05:01:30;8.63;;;2.80;;
11731;SDS011;5922;53.734;10.258;2023-03-14T05:03:59;6.07;;;3.10;;
11731;SDS011;5922;53.734;10.258;2023-03-14T05:06:26;6.90;;;3.20;;
11731;SDS011;5922;53.734;10.258;2023-03-14T05:08:53;8.17;;;3.10;;
11731;SDS011;5922;53.734;10.258;2023-03-14T05:11:20;3.73;;;2.10;;
11731;SDS011;5922;53.734;10.258;2023-03-14T05:13:48;5.67;;;2.13;;
11731;SDS011;5922;53.734;10.258;2023-03-14T05:16:15;3.90;;;1.60;;
11731;SDS011;5922;53.734;10.258;2023-03-14T05:18:42;2.53;;;1.40;;
11731;SDS011;5922;53.734;10.258;2023-03-14T05:21:11;4.17;;;1.30;;
11731;SDS011;5922;53.734;10.258;2023-03-14T05:23:38;3.80;;;1.20;;
11731;SDS011;5922;53.734;10.258;2023-03-14T05:26:05;2.37;;;1.00;;
11731;SDS011;5922;53.734;10.258;2023-03-14T05:28:33;2.20;;;1.30;;
11731;SDS011;5922;53.734;10.258;2023-03-14T05:31:00;1.30;;;0.83;;
11731;SDS011;5922;53.734;10.258;2023-03-14T05:33:28;4.37;;;1.53;;
11731;SDS011;5922;53.734;10.258;2023-03-14T05:35:55;1.93;;;1.20;;
11731;SDS011;5922;53.734;10.258;2023-03-14T05:38:24;2.27;;;1.20;;
11731;SDS011;5922;53.734;10.258;2023-03-14T05:40:53;2.87;;;1.10;;
11731;SDS011;5922;53.734;10.258;2023-03-14T05:43:20;2.07;;;1.10;;
11731;SDS011;5922;53.734;10.258;2023-03-14T05:45:50;2.23;;;1.10;;
11731;SDS011;5922;53.734;10.258;2023-03-14T05:48:18;1.40;;;1.10;;
11731;SDS011;5922;53.734;10.258;2023-03-14T05:50:46;2.20;;;1.33;;
11731;SDS011;5922;53.734;10.258;2023-03-14T05:53:14;2.37;;;1.23;;
11731;SDS011;5922;53.734;10.258;2023-03-14T05:55:43;2.17;;;1.30;;
11731;SDS011;5922;53.734;10.258;2023-03-14T05:58:11;1.93;;;1.30;;
11731;SDS011;5922;53.734;10.258;2023-03-14T06:00:38;3.03;;;1.30;;
11731;SDS011;5922;53.734;10.258;2023-03-14T06:03:07;3.87;;;1.60;;
11731;SDS011;5922;53.734;10.258;2023-03-14T06:05:35;3.30;;;1.67;;
11731;SDS011;5922;53.734;10.258;2023-03-14T06:08:02;2.63;;;1.50;;
11731;SDS011;5922;53.734;10.258;2023-03-14T06:10:29;1.47;;;1.33;;
11731;SDS011;5922;53.734;10.258;2023-03-14T06:12:58;3.07;;;1.90;;
11731;SDS011;5922;53.734;10.258;2023-03-14T06:15:25;4.17;;;1.90;;
11731;SDS011;5922;53.734;10.258;2023-03-14T06:17:53;3.07;;;1.60;;
11731;SDS011;5922;53.734;10.258;2023-03-14T06:20:20;6.20;;;1.97;;
11731;SDS011;5922;53.734;10.258;2023-03-14T06:22:48;4.23;;;2.00;;
11731;SDS011;5922;53.734;10.258;2023-03-14T06:25:15;3.37;;;1.90;;
11731;SDS011;5922;53.734;10.258;2023-03-14T06:27:42;4.90;;;2.27;;
11731;SDS011;5922;53.734;10.258;2023-03-14T06:30:11;5.20;;;2.67;;
11731;SDS011;5922;53.734;10.258;2023-03-14T06:32:39;5.17;;;2.90;;
11731;SDS011;5922;53.734;10.258;2023-03-14T06:35:06;5.20;;;3.00;;
11731;SDS011;5922;53.734;10.258;2023-03-14T06:37:34;3.67;;;2.40;;
11731;SDS011;5922;53.734;10.258;2023-03-14T06:40:01;6.93;;;3.13;;
11731;SDS011;5922;53.734;10.258;2023-03-14T06:42:30;6.40;;;2.80;;
11731;SDS011;5922;53.734;10.258;2023-03-14T06:44:57;5.73;;;3.10;;
11731;SDS011;5922;53.734;10.258;2023-03-14T06:47:27;3.77;;;2.93;;
11731;SDS011;5922;53.734;10.258;2023-03-14T06:49:54;4.87;;;3.07;;
11731;SDS011;5922;53.734;10.258;2023-03-14T06:52:21;5.70;;;3.13;;
11731;SDS011;5922;53.734;10.258;2023-03-14T06:54:49;4.83;;;3.07;;
11731;SDS011;5922;53.734;10.258;2023-03-14T06:57:16;7.23;;;3.30;;
11731;SDS011;5922;53.734;10.258;2023-03-14T06:59:43;10.13;;;3.53;;
11731;SDS011;5922;53.734;10.258;2023-03-14T07:02:13;6.80;;;3.20;;
11731;SDS011;5922;53.734;10.258;2023-03-14T07:04:41;5.43;;;3.00;;
11731;SDS011;5922;53.734;10.258;2023-03-14T07:07:09;5.10;;;3.13;;
11731;SDS011;5922;53.734;10.258;2023-03-14T07:09:36;5.57;;;3.10;;
11731;SDS011;5922;53.734;10.258;2023-03-14T07:15:07;8.03;;;2.77;;
11731;SDS011;5922;53.734;10.258;2023-03-14T07:17:34;5.27;;;2.93;;
11731;SDS011;5922;53.734;10.258;2023-03-14T07:20:07;6.33;;;3.43;;
11731;SDS011;5922;53.734;10.258;2023-03-14T07:22:35;7.07;;;4.10;;
11731;SDS011;5922;53.734;10.258;2023-03-14T07:25:03;5.03;;;3.10;;
11731;SDS011;5922;53.734;10.258;2023-03-14T07:27:30;10.40;;;3.83;;
11731;SDS011;5922;53.734;10.258;2023-03-14T07:29:57;6.80;;;2.63;;
11731;SDS011;5922;53.734;10.258;2023-03-14T07:32:25;6.50;;;2.63;;
11731;SDS011;5922;53.734;10.258;2023-03-14T07:34:52;7.67;;;2.87;;
11731;SDS011;5922;53.734;10.258;2023-03-14T07:37:21;7.33;;;3.10;;
11731;SDS011;5922;53.734;10.258;2023-03-14T07:39:48;6.53;;;2.73;;
11731;SDS011;5922;53.734;10.258;2023-03-14T07:42:15;5.83;;;2.40;;
11731;SDS011;5922;53.734;10.258;2023-03-14T07:44:42;4.73;;;2.60;;
11731;SDS011;5922;53.734;10.258;2023-03-14T07:47:16;4.93;;;2.23;;
11731;SDS011;5922;53.734;10.258;2023-03-14T07:49:44;2.97;;;2.10;;
11731;SDS011;5922;53.734;10.258;2023-03-14T07:52:11;6.23;;;2.23;;
11731;SDS011;5922;53.734;10.258;2023-03-14T07:54:39;5.23;;;2.13;;
11731;SDS011;5922;53.734;10.258;2023-03-14T07:57:07;5.77;;;2.10;;
11731;SDS011;5922;53.734;10.258;2023-03-14T07:59:34;3.83;;;1.57;;
11731;SDS011;5922;53.734;10.258;2023-03-14T08:02:01;4.80;;;1.60;;
11731;SDS011;5922;53.734;10.258;2023-03-14T08:04:30;4.93;;;2.33;;
11731;SDS011;5922;53.734;10.258;2023-03-14T08:06:57;3.67;;;2.27;;
11731;SDS011;5922;53.734;10.258;2023-03-14T08:09:25;4.97;;;2.40;;
11731;SDS011;5922;53.734;10.258;2023-03-14T08:11:53;5.47;;;2.20;;
11731;SDS011;5922;53.734;10.258;2023-03-14T08:14:23;6.07;;;2.40;;
11731;SDS011;5922;53.734;10.258;2023-03-14T08:16:55;5.93;;;2.27;;
11731;SDS011;5922;53.734;10.258;2023-03-14T08:19:22;5.00;;;2.13;;
11731;SDS011;5922;53.734;10.258;2023-03-14T08:21:50;4.47;;;2.20;;
11731;SDS011;5922;53.734;10.258;2023-03-14T08:24:17;3.80;;;2.20;;
11731;SDS011;5922;53.734;10.258;2023-03-14T08:26:44;7.10;;;2.40;;
11731;SDS011;5922;53.734;10.258;2023-03-14T08:29:13;4.70;;;2.00;;
11731;SDS011;5922;53.734;10.258;2023-03-14T08:31:40;5.13;;;1.80;;
11731;SDS011;5922;53.734;10.258;2023-03-14T08:34:13;5.60;;;2.27;;
11731;SDS011;5922;53.734;10.258;2023-03-14T08:36:40;3.53;;;1.90;;
11731;SDS011;5922;53.734;10.258;2023-03-14T08:39:08;4.40;;;2.00;;
11731;SDS011;5922;53.734;10.258;2023-03-14T08:41:35;6.47;;;2.03;;
11731;SDS011;5922;53.734;10.258;2023-03-14T08:44:05;2.63;;;1.73;;
11731;SDS011;5922;53.734;10.258;2023-03-14T08:46:34;4.53;;;1.67;;
11731;SDS011;5922;53.734;10.258;2023-03-14T08:49:01;3.77;;;1.77;;
11731;SDS011;5922;53.734;10.258;2023-03-14T08:51:28;3.47;;;1.90;;
11731;SDS011;5922;53.734;10.258;2023-03-14T08:53:55;3.17;;;1.60;;
11731;SDS011;5922;53.734;10.258;2023-03-14T08:56:23;4.13;;;1.70;;
11731;SDS011;5922;53.734;10.258;2023-03-14T08:58:50;4.20;;;1.90;;
11731;SDS011;5922;53.734;10.258;2023-03-14T09:01:19;4.13;;;1.63;;
11731;SDS011;5922;53.734;10.258;2023-03-14T09:03:50;4.20;;;1.80;;
11731;SDS011;5922;53.734;10.258;2023-03-14T09:06:17;3.83;;;1.83;;
11731;SDS011;5922;53.734;10.258;2023-03-14T09:08:45;4.57;;;2.03;;
11731;SDS011;5922;53.734;10.258;2023-03-14T09:11:12;6.67;;;2.23;;
11731;SDS011;5922;53.734;10.258;2023-03-14T09:13:40;3.30;;;1.87;;
11731;SDS011;5922;53.734;10.258;2023-03-14T09:16:16;3.47;;;1.90;;
11731;SDS011;5922;53.734;10.258;2023-03-14T09:18:43;5.30;;;2.07;;
11731;SDS011;5922;53.734;10.258;2023-03-14T09:21:13;5.63;;;2.33;;
11731;SDS011;5922;53.734;10.258;2023-03-14T09:23:46;3.90;;;2.00;;
11731;SDS011;5922;53.734;10.258;2023-03-14T09:26:13;5.90;;;2.37;;
11731;SDS011;5922;53.734;10.258;2023-03-14T09:28:41;6.17;;;2.20;;
11731;SDS011;5922;53.734;10.258;2023-03-14T09:31:09;4.43;;;2.10;;
11731;SDS011;5922;53.734;10.258;2023-03-14T09:33:36;7.00;;;3.00;;
11731;SDS011;5922;53.734;10.258;2023-03-14T09:36:04;4.03;;;2.30;;
11731;SDS011;5922;53.734;10.258;2023-03-14T09:38:33;4.83;;;2.40;;
11731;SDS011;5922;53.734;10.258;2023-03-14T09:41:14;6.00;;;2.27;;
11731;SDS011;5922;53.734;10.258;2023-03-14T09:43:45;5.67;;;2.90;;
11731;SDS011;5922;53.734;10.258;2023-03-14T09:46:16;7.90;;;2.80;;
11731;SDS011;5922;53.734;10.258;2023-03-14T09:48:43;7.10;;;3.27;;
11731;SDS011;5922;53.734;10.258;2023-03-14T09:51:11;4.67;;;2.77;;
11731;SDS011;5922;53.734;10.258;2023-03-14T09:53:41;3.30;;;2.57;;
11731;SDS011;5922;53.734;10.258;2023-03-14T09:56:11;7.50;;;2.67;;
11731;SDS011;5922;53.734;10.258;2023-03-14T09:58:39;5.00;;;2.53;;
11731;SDS011;5922;53.734;10.258;2023-03-14T10:01:07;6.93;;;2.50;;
11731;SDS011;5922;53.734;10.258;2023-03-14T10:03:36;4.70;;;2.10;;
11731;SDS011;5922;53.734;10.258;2023-03-14T10:06:09;2.63;;;1.17;;
11731;SDS011;5922;53.734;10.258;2023-03-14T10:08:46;3.00;;;1.00;;
11731;SDS011;5922;53.734;10.258;2023-03-14T10:11:19;3.20;;;1.10;;
11731;SDS011;5922;53.734;10.258;2023-03-14T10:13:48;1.33;;;1.00;;
11731;SDS011;5922;53.734;10.258;2023-03-14T10:16:16;1.17;;;0.87;;
11731;SDS011;5922;53.734;10.258;2023-03-14T10:18:44;1.13;;;0.97;;
11731;SDS011;5922;53.734;10.258;2023-03-14T10:21:17;1.37;;;0.90;;
11731;SDS011;5922;53.734;10.258;2023-03-14T10:23:46;0.67;;;0.60;;
11731;SDS011;5922;53.734;10.258;2023-03-14T10:26:14;1.17;;;0.70;;
11731;SDS011;5922;53.734;10.258;2023-03-14T10:28:43;1.97;;;0.70;;
11731;SDS011;5922;53.734;10.258;2023-03-14T10:31:10;1.03;;;0.60;;
11731;SDS011;5922;53.734;10.258;2023-03-14T10:36:27;1.90;;;0.60;;
11731;SDS011;5922;53.734;10.258;2023-03-14T10:38:58;1.07;;;0.70;;
11731;SDS011;5922;53.734;10.258;2023-03-14T10:41:31;0.53;;;0.53;;
11731;SDS011;5922;53.734;10.258;2023-03-14T10:44:02;1.17;;;1.00;;
11731;SDS011;5922;53.734;10.258;2023-03-14T10:46:30;1.77;;;0.90;;
11731;SDS011;5922;53.734;10.258;2023-03-14T10:48:57;2.33;;;1.00;;
11731;SDS011;5922;53.734;10.258;2023-03-14T10:51:25;1.57;;;0.70;;
11731;SDS011;5922;53.734;10.258;2023-03-14T10:53:56;1.37;;;1.00;;
11731;SDS011;5922;53.734;10.258;2023-03-14T10:56:26;0.67;;;0.67;;
11731;SDS011;5922;53.734;10.258;2023-03-14T10:58:55;0.87;;;0.80;;
11731;SDS011;5922;53.734;10.258;2023-03-14T11:01:33;0.70;;;0.70;;
11731;SDS011;5922;53.734;10.258;2023-03-14T11:04:03;0.80;;;0.80;;
11731;SDS011;5922;53.734;10.258;2023-03-14T11:06:35;1.30;;;1.10;;
11731;SDS011;5922;53.734;10.258;2023-03-14T11:09:05;1.57;;;0.77;;
11731;SDS011;5922;53.734;10.258;2023-03-14T11:11:36;1.90;;;1.10;;
11731;SDS011;5922;53.734;10.258;2023-03-14T11:14:18;1.90;;;0.90;;
11731;SDS011;5922;53.734;10.258;2023-03-14T11:16:50;1.40;;;0.80;;
11731;SDS011;5922;53.734;10.258;2023-03-14T11:19:43;0.80;;;0.80;;
11731;SDS011;5922;53.734;10.258;2023-03-14T11:22:24;1.53;;;1.00;;
11731;SDS011;5922;53.734;10.258;2023-03-14T11:25:01;2.53;;;1.00;;
11731;SDS011;5922;53.734;10.258;2023-03-14T11:27:36;2.67;;;1.10;;
11731;SDS011;5922;53.734;10.258;2023-03-14T11:30:13;0.77;;;0.77;;
11731;SDS011;5922;53.734;10.258;2023-03-14T11:32:49;2.33;;;0.87;;
11731;SDS011;5922;53.734;10.258;2023-03-14T11:35:38;3.47;;;1.20;;
11731;SDS011;5922;53.734;10.258;2023-03-14T11:38:19;1.60;;;1.10;;
11731;SDS011;5922;53.734;10.258;2023-03-14T11:40:56;3.83;;;0.80;;
11731;SDS011;5922;53.734;10.258;2023-03-14T11:43:30;2.10;;;0.90;;
11731;SDS011;5922;53.734;10.258;2023-03-14T11:46:04;2.83;;;1.10;;
11731;SDS011;5922;53.734;10.258;2023-03-14T11:48:42;3.80;;;1.00;;
11731;SDS011;5922;53.734;10.258;2023-03-14T11:51:14;2.37;;;1.00;;
11731;SDS011;5922;53.734;10.258;2023-03-14T11:53:58;2.57;;;1.03;;
11731;SDS011;5922;53.734;10.258;2023-03-14T11:56:39;3.17;;;1.30;;
11731;SDS011;5922;53.734;10.258;2023-03-14T11:59:24;4.03;;;1.50;;
11731;SDS011;5922;53.734;10.258;2023-03-14T12:04:51;4.37;;;1.23;;
11731;SDS011;5922;53.734;10.258;2023-03-14T12:07:49;3.57;;;1.20;;
11731;SDS011;5922;53.734;10.258;2023-03-14T12:10:32;3.50;;;1.40;;
11731;SDS011;5922;53.734;10.258;2023-03-14T12:13:06;6.53;;;1.30;;
11731;SDS011;5922;53.734;10.258;2023-03-14T12:15:37;5.50;;;1.47;;
11731;SDS011;5922;53.734;10.258;2023-03-14T12:18:15;5.53;;;1.27;;
11731;SDS011;5922;53.734;10.258;2023-03-14T12:21:00;8.17;;;1.47;;
11731;SDS011;5922;53.734;10.258;2023-03-14T12:24:15;5.57;;;1.37;;
11731;SDS011;5922;53.734;10.258;2023-03-14T12:26:56;5.00;;;1.73;;
11731;SDS011;5922;53.734;10.258;2023-03-14T12:29:26;3.23;;;1.33;;
11731;SDS011;5922;53.734;10.258;2023-03-14T12:32:09;4.93;;;2.10;;
11731;SDS011;5922;53.734;10.258;2023-03-14T12:34:48;8.07;;;2.13;;
11731;SDS011;5922;53.734;10.258;2023-03-14T12:37:31;5.20;;;1.80;;
11731;SDS011;5922;53.734;10.258;2023-03-14T12:40:24;6.20;;;1.83;;
11731;SDS011;5922;53.734;10.258;2023-03-14T12:45:55;10.37;;;1.70;;
11731;SDS011;5922;53.734;10.258;2023-03-14T12:48:46;12.77;;;2.00;;
11731;SDS011;5922;53.734;10.258;2023-03-14T12:51:26;9.27;;;2.10;;
11731;SDS011;5922;53.734;10.258;2023-03-14T12:54:14;8.20;;;2.20;;
11731;SDS011;5922;53.734;10.258;2023-03-14T12:57:01;8.33;;;2.10;;
11731;SDS011;5922;53.734;10.258;2023-03-14T13:12:03;8.90;;;1.70;;
11731;SDS011;5922;53.734;10.258;2023-03-14T13:17:30;6.77;;;2.20;;
11731;SDS011;5922;53.734;10.258;2023-03-14T13:23:18;8.63;;;2.63;;
11731;SDS011;5922;53.734;10.258;2023-03-14T13:25:45;13.80;;;2.23;;
11731;SDS011;5922;53.734;10.258;2023-03-14T13:28:19;9.03;;;2.20;;
11731;SDS011;5922;53.734;10.258;2023-03-14T13:30:54;11.77;;;2.50;;
11731;SDS011;5922;53.734;10.258;2023-03-14T13:33:34;11.13;;;2.30;;
11731;SDS011;5922;53.734;10.258;2023-03-14T13:36:04;9.17;;;2.40;;
11731;SDS011;5922;53.734;10.258;2023-03-14T13:38:38;12.73;;;2.40;;
11731;SDS011;5922;53.734;10.258;2023-03-14T13:41:11;11.23;;;2.77;;
11731;SDS011;5922;53.734;10.258;2023-03-14T13:44:10;12.23;;;2.70;;
11731;SDS011;5922;53.734;10.258;2023-03-14T13:46:51;9.23;;;2.87;;
11731;SDS011;5922;53.734;10.258;2023-03-14T13:49:26;9.03;;;2.57;;
11731;SDS011;5922;53.734;10.258;2023-03-14T13:52:30;7.17;;;2.50;;
11731;SDS011;5922;53.734;10.258;2023-03-14T13:55:04;11.10;;;2.70;;
11731;SDS011;5922;53.734;10.258;2023-03-14T13:57:53;6.80;;;2.63;;
11731;SDS011;5922;53.734;10.258;2023-03-14T14:00:27;5.37;;;2.17;;
11731;SDS011;5922;53.734;10.258;2023-03-14T14:02:59;5.73;;;2.60;;
11731;SDS011;5922;53.734;10.258;2023-03-14T14:05:27;6.23;;;2.17;;
11731;SDS011;5922;53.734;10.258;2023-03-14T14:08:04;7.87;;;2.47;;
11731;SDS011;5922;53.734;10.258;2023-03-14T14:10:33;7.80;;;2.03;;
11731;SDS011;5922;53.734;10.258;2023-03-14T14:13:06;8.10;;;2.70;;
11731;SDS011;5922;53.734;10.258;2023-03-14T14:15:39;4.87;;;1.63;;
11731;SDS011;5922;53.734;10.258;2023-03-14T14:18:08;5.83;;;1.70;;
11731;SDS011;5922;53.734;10.258;2023-03-14T14:20:46;7.23;;;2.20;;
11731;SDS011;5922;53.734;10.258;2023-03-14T14:23:17;6.63;;;1.90;;
11731;SDS011;5922;53.734;10.258;2023-03-14T14:25:50;5.37;;;1.90;;
11731;SDS011;5922;53.734;10.258;2023-03-14T14:28:22;5.33;;;1.90;;
11731;SDS011;5922;53.734;10.258;2023-03-14T14:31:00;5.93;;;2.00;;
11731;SDS011;5922;53.734;10.258;2023-03-14T14:33:44;7.20;;;1.97;;
11731;SDS011;5922;53.734;10.258;2023-03-14T14:36:14;7.83;;;2.10;;
11731;SDS011;5922;53.734;10.258;2023-03-14T14:38:42;11.17;;;2.00;;
11731;SDS011;5922;53.734;10.258;2023-03-14T14:41:12;7.57;;;2.07;;
11731;SDS011;5922;53.734;10.258;2023-03-14T14:43:39;4.97;;;2.13;;
11731;SDS011;5922;53.734;10.258;2023-03-14T14:46:13;7.57;;;2.37;;
11731;SDS011;5922;53.734;10.258;2023-03-14T14:48:42;9.33;;;1.70;;
11731;SDS011;5922;53.734;10.258;2023-03-14T14:51:10;5.47;;;1.70;;
11731;SDS011;5922;53.734;10.258;2023-03-14T14:53:41;6.83;;;2.00;;
11731;SDS011;5922;53.734;10.258;2023-03-14T14:56:15;7.53;;;2.20;;
11731;SDS011;5922;53.734;10.258;2023-03-14T14:58:43;4.13;;;1.77;;
11731;SDS011;5922;53.734;10.258;2023-03-14T15:01:14;6.33;;;1.97;;
11731;SDS011;5922;53.734;10.258;2023-03-14T15:03:41;4.47;;;1.60;;
11731;SDS011;5922;53.734;10.258;2023-03-14T15:06:11;7.87;;;1.87;;
11731;SDS011;5922;53.734;10.258;2023-03-14T15:08:41;5.47;;;2.03;;
11731;SDS011;5922;53.734;10.258;2023-03-14T15:11:10;5.03;;;1.63;;
11731;SDS011;5922;53.734;10.258;2023-03-14T15:13:42;3.63;;;1.67;;
11731;SDS011;5922;53.734;10.258;2023-03-14T15:16:13;3.80;;;1.43;;
11731;SDS011;5922;53.734;10.258;2023-03-14T15:18:41;9.00;;;1.50;;
11731;SDS011;5922;53.734;10.258;2023-03-14T15:21:09;5.03;;;1.60;;
11731;SDS011;5922;53.734;10.258;2023-03-14T15:23:37;5.73;;;1.70;;
11731;SDS011;5922;53.734;10.258;2023-03-14T15:26:05;4.00;;;1.27;;
11731;SDS011;5922;53.734;10.258;2023-03-14T15:28:39;5.47;;;1.80;;
11731;SDS011;5922;53.734;10.258;2023-03-14T15:31:08;7.23;;;1.80;;
11731;SDS011;5922;53.734;10.258;2023-03-14T15:33:37;8.10;;;1.97;;
11731;SDS011;5922;53.734;10.258;2023-03-14T15:36:05;8.80;;;1.83;;